sensor_id;sensor_type;location;lat;lon;timestamp;temperature;humidity
74416;SHT31;62850;42.428;25.618;2022-12-07T00:01:10;8.68;83.38
74416;SHT31;62850;42.428;25.618;2022-12-07T00:03:37;8.73;83.03
74416;SHT31;62850;42.428;25.618;2022-12-07T00:06:04;8.72;82.83
74416;SHT31;62850;42.428;25.618;2022-12-07T00:08:30;8.69;82.87
74416;SHT31;62850;42.428;25.618;2022-12-07T00:11:01;8.69;82.51
74416;SHT31;62850;42.428;25.618;2022-12-07T00:13:27;8.62;82.63
74416;SHT31;62850;42.428;25.618;2022-12-07T00:15:52;8.59;82.31
74416;SHT31;62850;42.428;25.618;2022-12-07T00:18:18;8.56;82.49
74416;SHT31;62850;42.428;25.618;2022-12-07T00:20:43;8.58;82.31
74416;SHT31;62850;42.428;25.618;2022-12-07T00:23:09;8.51;81.58
74416;SHT31;62850;42.428;25.618;2022-12-07T00:25:34;8.46;80.97
74416;SHT31;62850;42.428;25.618;2022-12-07T00:28:00;8.48;81.02
74416;SHT31;62850;42.428;25.618;2022-12-07T00:30:25;8.52;81.20
74416;SHT31;62850;42.428;25.618;2022-12-07T00:32:51;8.53;81.17
74416;SHT31;62850;42.428;25.618;2022-12-07T00:35:16;8.53;81.46
74416;SHT31;62850;42.428;25.618;2022-12-07T00:37:42;8.58;81.46
74416;SHT31;62850;42.428;25.618;2022-12-07T00:40:08;8.52;81.57
74416;SHT31;62850;42.428;25.618;2022-12-07T00:42:33;8.48;81.78
74416;SHT31;62850;42.428;25.618;2022-12-07T00:44:59;8.45;81.68
74416;SHT31;62850;42.428;25.618;2022-12-07T00:47:24;8.44;81.53
74416;SHT31;62850;42.428;25.618;2022-12-07T00:49:50;8.45;81.50
74416;SHT31;62850;42.428;25.618;2022-12-07T00:52:15;8.42;81.49
74416;SHT31;62850;42.428;25.618;2022-12-07T00:54:41;8.31;81.97
74416;SHT31;62850;42.428;25.618;2022-12-07T00:57:06;8.30;81.97
74416;SHT31;62850;42.428;25.618;2022-12-07T00:59:32;8.24;82.04
74416;SHT31;62850;42.428;25.618;2022-12-07T01:01:57;8.27;81.82
74416;SHT31;62850;42.428;25.618;2022-12-07T01:04:23;8.25;81.71
74416;SHT31;62850;42.428;25.618;2022-12-07T01:06:49;8.24;81.64
74416;SHT31;62850;42.428;25.618;2022-12-07T01:09:14;8.08;81.73
74416;SHT31;62850;42.428;25.618;2022-12-07T01:11:40;7.91;82.35
74416;SHT31;62850;42.428;25.618;2022-12-07T01:14:05;7.90;82.34
74416;SHT31;62850;42.428;25.618;2022-12-07T01:16:31;7.80;82.44
74416;SHT31;62850;42.428;25.618;2022-12-07T01:18:58;7.73;82.62
74416;SHT31;62850;42.428;25.618;2022-12-07T01:21:27;7.79;82.54
74416;SHT31;62850;42.428;25.618;2022-12-07T01:23:53;7.71;82.29
74416;SHT31;62850;42.428;25.618;2022-12-07T01:26:21;7.67;82.48
74416;SHT31;62850;42.428;25.618;2022-12-07T01:28:47;7.52;83.12
74416;SHT31;62850;42.428;25.618;2022-12-07T01:31:17;7.33;83.81
74416;SHT31;62850;42.428;25.618;2022-12-07T01:33:46;7.32;84.10
74416;SHT31;62850;42.428;25.618;2022-12-07T01:36:16;7.36;83.75
74416;SHT31;62850;42.428;25.618;2022-12-07T01:38:43;7.41;83.50
74416;SHT31;62850;42.428;25.618;2022-12-07T01:41:09;7.46;83.37
74416;SHT31;62850;42.428;25.618;2022-12-07T01:43:35;7.49;83.29
74416;SHT31;62850;42.428;25.618;2022-12-07T01:46:02;7.43;82.99
74416;SHT31;62850;42.428;25.618;2022-12-07T01:48:39;7.25;83.50
74416;SHT31;62850;42.428;25.618;2022-12-07T01:51:11;7.18;83.81
74416;SHT31;62850;42.428;25.618;2022-12-07T01:53:41;7.12;84.14
74416;SHT31;62850;42.428;25.618;2022-12-07T01:56:10;7.09;84.30
74416;SHT31;62850;42.428;25.618;2022-12-07T01:58:36;7.05;84.59
74416;SHT31;62850;42.428;25.618;2022-12-07T02:01:03;6.98;84.88
74416;SHT31;62850;42.428;25.618;2022-12-07T02:03:32;7.02;84.47
74416;SHT31;62850;42.428;25.618;2022-12-07T02:06:00;6.98;84.64
74416;SHT31;62850;42.428;25.618;2022-12-07T02:08:25;7.05;84.59
74416;SHT31;62850;42.428;25.618;2022-12-07T02:10:51;7.14;84.21
74416;SHT31;62850;42.428;25.618;2022-12-07T02:13:22;7.21;83.95
74416;SHT31;62850;42.428;25.618;2022-12-07T02:16:16;7.26;83.78
74416;SHT31;62850;42.428;25.618;2022-12-07T02:21:18;7.25;83.89
74416;SHT31;62850;42.428;25.618;2022-12-07T02:29:24;7.36;84.01
74416;SHT31;62850;42.428;25.618;2022-12-07T02:34:44;7.35;83.71
74416;SHT31;62850;42.428;25.618;2022-12-07T02:40:13;7.36;83.74
74416;SHT31;62850;42.428;25.618;2022-12-07T02:42:46;7.43;83.61
74416;SHT31;62850;42.428;25.618;2022-12-07T02:45:15;7.42;83.78
74416;SHT31;62850;42.428;25.618;2022-12-07T02:47:43;7.45;83.62
74416;SHT31;62850;42.428;25.618;2022-12-07T02:50:10;7.42;83.54
74416;SHT31;62850;42.428;25.618;2022-12-07T02:52:36;7.53;83.22
74416;SHT31;62850;42.428;25.618;2022-12-07T02:55:01;7.63;83.02
74416;SHT31;62850;42.428;25.618;2022-12-07T02:57:50;7.67;82.80
74416;SHT31;62850;42.428;25.618;2022-12-07T03:00:20;7.73;82.74
74416;SHT31;62850;42.428;25.618;2022-12-07T03:03:09;7.80;82.69
74416;SHT31;62850;42.428;25.618;2022-12-07T03:08:25;7.80;82.66
74416;SHT31;62850;42.428;25.618;2022-12-07T03:16:27;7.74;82.64
74416;SHT31;62850;42.428;25.618;2022-12-07T03:18:59;7.77;82.72
74416;SHT31;62850;42.428;25.618;2022-12-07T03:21:36;7.77;82.63
74416;SHT31;62850;42.428;25.618;2022-12-07T03:24:07;7.67;82.71
74416;SHT31;62850;42.428;25.618;2022-12-07T03:26:37;7.65;83.11
74416;SHT31;62850;42.428;25.618;2022-12-07T03:29:16;7.65;83.27
74416;SHT31;62850;42.428;25.618;2022-12-07T03:31:46;7.71;83.11
74416;SHT31;62850;42.428;25.618;2022-12-07T03:34:34;7.76;82.86
74416;SHT31;62850;42.428;25.618;2022-12-07T03:37:07;7.77;82.78
74416;SHT31;62850;42.428;25.618;2022-12-07T03:39:41;7.84;82.64
74416;SHT31;62850;42.428;25.618;2022-12-07T03:42:10;7.90;82.40
74416;SHT31;62850;42.428;25.618;2022-12-07T03:44:36;7.94;82.02
74416;SHT31;62850;42.428;25.618;2022-12-07T03:47:30;7.97;81.90
74416;SHT31;62850;42.428;25.618;2022-12-07T03:52:53;8.01;81.79
74416;SHT31;62850;42.428;25.618;2022-12-07T03:55:22;8.00;81.81
74416;SHT31;62850;42.428;25.618;2022-12-07T03:57:51;7.93;82.06
74416;SHT31;62850;42.428;25.618;2022-12-07T04:00:18;7.94;82.07
74416;SHT31;62850;42.428;25.618;2022-12-07T04:02:44;7.86;82.14
74416;SHT31;62850;42.428;25.618;2022-12-07T04:05:11;7.89;82.15
74416;SHT31;62850;42.428;25.618;2022-12-07T04:07:36;7.90;82.24
74416;SHT31;62850;42.428;25.618;2022-12-07T04:10:03;7.93;82.13
74416;SHT31;62850;42.428;25.618;2022-12-07T04:12:29;7.93;82.20
74416;SHT31;62850;42.428;25.618;2022-12-07T04:14:54;7.94;82.23
74416;SHT31;62850;42.428;25.618;2022-12-07T04:17:20;7.93;82.15
74416;SHT31;62850;42.428;25.618;2022-12-07T04:19:45;7.97;82.28
74416;SHT31;62850;42.428;25.618;2022-12-07T04:22:11;7.87;82.50
74416;SHT31;62850;42.428;25.618;2022-12-07T04:24:36;7.93;82.32
74416;SHT31;62850;42.428;25.618;2022-12-07T04:27:02;7.84;82.38
74416;SHT31;62850;42.428;25.618;2022-12-07T04:29:28;7.76;82.58
74416;SHT31;62850;42.428;25.618;2022-12-07T04:31:53;7.81;82.36
74416;SHT31;62850;42.428;25.618;2022-12-07T04:34:19;7.79;82.76
74416;SHT31;62850;42.428;25.618;2022-12-07T04:36:46;7.86;82.69
74416;SHT31;62850;42.428;25.618;2022-12-07T04:39:22;7.87;82.51
74416;SHT31;62850;42.428;25.618;2022-12-07T04:41:48;7.86;82.53
74416;SHT31;62850;42.428;25.618;2022-12-07T04:44:15;7.89;82.62
74416;SHT31;62850;42.428;25.618;2022-12-07T04:46:42;7.95;82.39
74416;SHT31;62850;42.428;25.618;2022-12-07T04:49:08;7.95;82.29
74416;SHT31;62850;42.428;25.618;2022-12-07T04:51:33;7.98;82.15
74416;SHT31;62850;42.428;25.618;2022-12-07T04:53:59;7.94;82.38
74416;SHT31;62850;42.428;25.618;2022-12-07T04:56:24;8.00;82.30
74416;SHT31;62850;42.428;25.618;2022-12-07T04:58:51;7.93;82.22
74416;SHT31;62850;42.428;25.618;2022-12-07T05:01:18;7.89;82.32
74416;SHT31;62850;42.428;25.618;2022-12-07T05:03:43;7.94;82.26
74416;SHT31;62850;42.428;25.618;2022-12-07T05:06:10;7.98;82.21
74416;SHT31;62850;42.428;25.618;2022-12-07T05:08:36;7.95;82.20
74416;SHT31;62850;42.428;25.618;2022-12-07T05:11:03;7.91;82.43
74416;SHT31;62850;42.428;25.618;2022-12-07T05:13:29;7.87;82.73
74416;SHT31;62850;42.428;25.618;2022-12-07T05:15:55;7.91;82.68
74416;SHT31;62850;42.428;25.618;2022-12-07T05:18:20;7.86;82.80
74416;SHT31;62850;42.428;25.618;2022-12-07T05:20:46;7.89;82.72
74416;SHT31;62850;42.428;25.618;2022-12-07T05:23:11;7.77;83.03
74416;SHT31;62850;42.428;25.618;2022-12-07T05:25:37;7.83;83.07
74416;SHT31;62850;42.428;25.618;2022-12-07T05:28:04;7.89;82.89
74416;SHT31;62850;42.428;25.618;2022-12-07T05:30:31;7.83;82.79
74416;SHT31;62850;42.428;25.618;2022-12-07T05:32:56;7.87;82.82
74416;SHT31;62850;42.428;25.618;2022-12-07T05:35:22;7.90;82.82
74416;SHT31;62850;42.428;25.618;2022-12-07T05:37:48;7.87;82.80
74416;SHT31;62850;42.428;25.618;2022-12-07T05:40:14;7.90;82.81
74416;SHT31;62850;42.428;25.618;2022-12-07T05:42:40;7.94;82.64
74416;SHT31;62850;42.428;25.618;2022-12-07T05:45:06;7.89;82.39
74416;SHT31;62850;42.428;25.618;2022-12-07T05:47:33;7.71;83.02
74416;SHT31;62850;42.428;25.618;2022-12-07T05:49:58;7.74;83.24
74416;SHT31;62850;42.428;25.618;2022-12-07T05:52:24;7.77;83.02
74416;SHT31;62850;42.428;25.618;2022-12-07T05:54:49;7.77;83.05
74416;SHT31;62850;42.428;25.618;2022-12-07T05:57:15;7.79;82.97
74416;SHT31;62850;42.428;25.618;2022-12-07T05:59:41;7.74;83.06
74416;SHT31;62850;42.428;25.618;2022-12-07T06:02:11;7.71;83.25
74416;SHT31;62850;42.428;25.618;2022-12-07T06:04:42;7.80;82.72
74416;SHT31;62850;42.428;25.618;2022-12-07T06:07:09;7.70;82.74
74416;SHT31;62850;42.428;25.618;2022-12-07T06:09:36;7.70;83.05
74416;SHT31;62850;42.428;25.618;2022-12-07T06:12:03;7.74;82.94
74416;SHT31;62850;42.428;25.618;2022-12-07T06:14:47;7.76;82.69
74416;SHT31;62850;42.428;25.618;2022-12-07T06:17:13;7.71;83.00
74416;SHT31;62850;42.428;25.618;2022-12-07T06:19:39;7.65;83.19
74416;SHT31;62850;42.428;25.618;2022-12-07T06:22:06;7.65;83.26
74416;SHT31;62850;42.428;25.618;2022-12-07T06:24:33;7.69;82.91
74416;SHT31;62850;42.428;25.618;2022-12-07T06:26:59;7.69;83.19
74416;SHT31;62850;42.428;25.618;2022-12-07T06:29:25;7.76;82.97
74416;SHT31;62850;42.428;25.618;2022-12-07T06:31:50;7.87;82.61
74416;SHT31;62850;42.428;25.618;2022-12-07T06:34:18;7.97;82.29
74416;SHT31;62850;42.428;25.618;2022-12-07T06:36:45;8.04;82.20
74416;SHT31;62850;42.428;25.618;2022-12-07T06:39:11;8.05;82.07
74416;SHT31;62850;42.428;25.618;2022-12-07T06:41:37;8.12;82.19
74416;SHT31;62850;42.428;25.618;2022-12-07T06:44:06;8.14;82.14
74416;SHT31;62850;42.428;25.618;2022-12-07T06:46:32;8.14;82.00
74416;SHT31;62850;42.428;25.618;2022-12-07T06:48:58;8.15;81.96
74416;SHT31;62850;42.428;25.618;2022-12-07T06:51:23;8.11;81.79
74416;SHT31;62850;42.428;25.618;2022-12-07T06:53:49;8.21;81.81
74416;SHT31;62850;42.428;25.618;2022-12-07T06:56:15;8.27;81.77
74416;SHT31;62850;42.428;25.618;2022-12-07T06:58:41;8.30;81.89
74416;SHT31;62850;42.428;25.618;2022-12-07T07:01:11;8.41;81.32
74416;SHT31;62850;42.428;25.618;2022-12-07T07:03:37;8.48;81.02
74416;SHT31;62850;42.428;25.618;2022-12-07T07:06:03;8.55;80.80
74416;SHT31;62850;42.428;25.618;2022-12-07T07:08:28;8.60;80.57
74416;SHT31;62850;42.428;25.618;2022-12-07T07:10:54;8.69;80.41
74416;SHT31;62850;42.428;25.618;2022-12-07T07:13:19;8.72;80.41
74416;SHT31;62850;42.428;25.618;2022-12-07T07:15:45;8.82;80.24
74416;SHT31;62850;42.428;25.618;2022-12-07T07:18:11;8.87;80.08
74416;SHT31;62850;42.428;25.618;2022-12-07T07:20:37;8.97;79.83
74416;SHT31;62850;42.428;25.618;2022-12-07T07:23:03;8.97;79.73
74416;SHT31;62850;42.428;25.618;2022-12-07T07:25:29;9.04;79.46
74416;SHT31;62850;42.428;25.618;2022-12-07T07:27:55;9.11;79.28
74416;SHT31;62850;42.428;25.618;2022-12-07T07:30:20;9.13;79.57
74416;SHT31;62850;42.428;25.618;2022-12-07T07:32:46;9.19;78.78
74416;SHT31;62850;42.428;25.618;2022-12-07T07:35:12;9.28;78.08
74416;SHT31;62850;42.428;25.618;2022-12-07T07:37:39;9.34;77.72
74416;SHT31;62850;42.428;25.618;2022-12-07T07:40:05;9.44;77.26
74416;SHT31;62850;42.428;25.618;2022-12-07T07:42:31;9.49;77.13
74416;SHT31;62850;42.428;25.618;2022-12-07T07:44:57;9.52;77.13
74416;SHT31;62850;42.428;25.618;2022-12-07T07:47:22;9.52;77.35
74416;SHT31;62850;42.428;25.618;2022-12-07T07:49:48;9.42;77.13
74416;SHT31;62850;42.428;25.618;2022-12-07T07:52:13;9.47;76.64
74416;SHT31;62850;42.428;25.618;2022-12-07T07:54:39;9.58;76.25
74416;SHT31;62850;42.428;25.618;2022-12-07T07:57:04;9.61;76.36
74416;SHT31;62850;42.428;25.618;2022-12-07T07:59:30;9.62;76.45
74416;SHT31;62850;42.428;25.618;2022-12-07T08:01:55;9.67;76.56
74416;SHT31;62850;42.428;25.618;2022-12-07T08:04:21;9.78;76.49
74416;SHT31;62850;42.428;25.618;2022-12-07T08:06:46;9.79;75.90
74416;SHT31;62850;42.428;25.618;2022-12-07T08:09:12;9.90;75.35
74416;SHT31;62850;42.428;25.618;2022-12-07T08:11:37;9.95;75.05
74416;SHT31;62850;42.428;25.618;2022-12-07T08:14:03;10.03;74.47
74416;SHT31;62850;42.428;25.618;2022-12-07T08:16:29;10.14;74.49
74416;SHT31;62850;42.428;25.618;2022-12-07T08:18:54;10.21;74.30
74416;SHT31;62850;42.428;25.618;2022-12-07T08:21:20;10.30;74.02
74416;SHT31;62850;42.428;25.618;2022-12-07T08:23:46;10.43;73.96
74416;SHT31;62850;42.428;25.618;2022-12-07T08:26:15;10.50;73.94
74416;SHT31;62850;42.428;25.618;2022-12-07T08:28:41;10.58;73.68
74416;SHT31;62850;42.428;25.618;2022-12-07T08:31:10;10.65;73.74
74416;SHT31;62850;42.428;25.618;2022-12-07T08:33:37;10.71;73.65
74416;SHT31;62850;42.428;25.618;2022-12-07T08:36:04;10.74;73.48
74416;SHT31;62850;42.428;25.618;2022-12-07T08:38:31;10.71;73.74
74416;SHT31;62850;42.428;25.618;2022-12-07T08:40:58;10.72;73.37
74416;SHT31;62850;42.428;25.618;2022-12-07T08:43:24;10.68;72.94
74416;SHT31;62850;42.428;25.618;2022-12-07T08:46:33;10.78;72.15
74416;SHT31;62850;42.428;25.618;2022-12-07T08:49:20;10.79;72.06
74416;SHT31;62850;42.428;25.618;2022-12-07T08:51:47;10.79;73.10
74416;SHT31;62850;42.428;25.618;2022-12-07T08:54:15;10.87;72.57
74416;SHT31;62850;42.428;25.618;2022-12-07T08:56:42;10.88;72.11
74416;SHT31;62850;42.428;25.618;2022-12-07T08:59:12;10.92;71.72
74416;SHT31;62850;42.428;25.618;2022-12-07T09:01:38;10.97;71.62
74416;SHT31;62850;42.428;25.618;2022-12-07T09:04:04;11.05;71.03
74416;SHT31;62850;42.428;25.618;2022-12-07T09:06:29;11.04;71.50
74416;SHT31;62850;42.428;25.618;2022-12-07T09:08:58;11.09;71.16
74416;SHT31;62850;42.428;25.618;2022-12-07T09:11:25;11.14;70.70
74416;SHT31;62850;42.428;25.618;2022-12-07T09:13:50;11.18;70.30
74416;SHT31;62850;42.428;25.618;2022-12-07T09:16:16;11.22;70.71
74416;SHT31;62850;42.428;25.618;2022-12-07T09:18:41;11.25;70.76
74416;SHT31;62850;42.428;25.618;2022-12-07T09:21:07;11.29;70.95
74416;SHT31;62850;42.428;25.618;2022-12-07T09:23:33;11.29;71.37
74416;SHT31;62850;42.428;25.618;2022-12-07T09:26:00;11.44;71.05
74416;SHT31;62850;42.428;25.618;2022-12-07T09:28:26;11.50;70.08
74416;SHT31;62850;42.428;25.618;2022-12-07T09:30:51;11.50;69.56
74416;SHT31;62850;42.428;25.618;2022-12-07T09:33:17;11.55;69.00
74416;SHT31;62850;42.428;25.618;2022-12-07T09:35:46;11.56;68.98
74416;SHT31;62850;42.428;25.618;2022-12-07T09:38:12;11.52;68.90
74416;SHT31;62850;42.428;25.618;2022-12-07T09:40:38;11.43;69.01
74416;SHT31;62850;42.428;25.618;2022-12-07T09:43:04;11.46;69.18
74416;SHT31;62850;42.428;25.618;2022-12-07T09:45:35;11.50;69.27
74416;SHT31;62850;42.428;25.618;2022-12-07T09:48:05;11.57;69.06
74416;SHT31;62850;42.428;25.618;2022-12-07T09:50:31;11.57;68.77
74416;SHT31;62850;42.428;25.618;2022-12-07T09:53:32;11.60;68.18
74416;SHT31;62850;42.428;25.618;2022-12-07T09:55:55;11.67;68.11
74416;SHT31;62850;42.428;25.618;2022-12-07T09:58:25;11.71;68.40
74416;SHT31;62850;42.428;25.618;2022-12-07T10:03:37;11.52;70.68
74416;SHT31;62850;42.428;25.618;2022-12-07T10:06:04;11.59;70.98
74416;SHT31;62850;42.428;25.618;2022-12-07T10:08:31;11.59;70.80
74416;SHT31;62850;42.428;25.618;2022-12-07T10:10:57;11.56;70.32
74416;SHT31;62850;42.428;25.618;2022-12-07T10:13:40;11.53;70.44
74416;SHT31;62850;42.428;25.618;2022-12-07T10:16:06;11.50;70.19
74416;SHT31;62850;42.428;25.618;2022-12-07T10:18:37;11.46;70.35
74416;SHT31;62850;42.428;25.618;2022-12-07T10:21:24;11.46;70.63
74416;SHT31;62850;42.428;25.618;2022-12-07T10:26:50;11.56;70.11
74416;SHT31;62850;42.428;25.618;2022-12-07T10:29:36;11.62;69.26
74416;SHT31;62850;42.428;25.618;2022-12-07T10:34:41;11.56;68.62
74416;SHT31;62850;42.428;25.618;2022-12-07T10:39:51;11.50;69.43
74416;SHT31;62850;42.428;25.618;2022-12-07T10:42:21;11.59;69.50
74416;SHT31;62850;42.428;25.618;2022-12-07T10:44:48;11.64;69.68
74416;SHT31;62850;42.428;25.618;2022-12-07T10:55:47;11.98;67.94
74416;SHT31;62850;42.428;25.618;2022-12-07T11:00:25;11.97;67.87
74416;SHT31;62850;42.428;25.618;2022-12-07T11:11:16;12.21;67.31
74416;SHT31;62850;42.428;25.618;2022-12-07T11:21:37;12.24;66.93
74416;SHT31;62850;42.428;25.618;2022-12-07T11:24:23;12.22;66.76
74416;SHT31;62850;42.428;25.618;2022-12-07T11:29:43;12.24;67.13
74416;SHT31;62850;42.428;25.618;2022-12-07T11:32:20;12.24;66.23
74416;SHT31;62850;42.428;25.618;2022-12-07T11:37:34;12.21;66.21
74416;SHT31;62850;42.428;25.618;2022-12-07T11:40:16;12.28;66.04
74416;SHT31;62850;42.428;25.618;2022-12-07T11:43:04;12.26;65.45
74416;SHT31;62850;42.428;25.618;2022-12-07T11:45:35;12.20;65.84
74416;SHT31;62850;42.428;25.618;2022-12-07T11:48:14;12.20;66.17
74416;SHT31;62850;42.428;25.618;2022-12-07T11:50:45;12.21;66.30
74416;SHT31;62850;42.428;25.618;2022-12-07T11:53:22;12.22;66.10
74416;SHT31;62850;42.428;25.618;2022-12-07T12:06:38;12.21;65.85
74416;SHT31;62850;42.428;25.618;2022-12-07T12:20:37;12.15;65.44
74416;SHT31;62850;42.428;25.618;2022-12-07T12:23:24;12.15;66.02
74416;SHT31;62850;42.428;25.618;2022-12-07T12:25:55;12.14;65.62
74416;SHT31;62850;42.428;25.618;2022-12-07T12:31:12;12.05;64.97
74416;SHT31;62850;42.428;25.618;2022-12-07T12:33:44;12.04;65.60
74416;SHT31;62850;42.428;25.618;2022-12-07T12:36:24;12.01;65.68
74416;SHT31;62850;42.428;25.618;2022-12-07T12:50:24;11.84;65.92
74416;SHT31;62850;42.428;25.618;2022-12-07T13:01:31;11.91;65.93
74416;SHT31;62850;42.428;25.618;2022-12-07T13:03:34;11.90;66.67
74416;SHT31;62850;42.428;25.618;2022-12-07T13:06:19;11.81;66.31
74416;SHT31;62850;42.428;25.618;2022-12-07T13:08:46;11.84;66.19
74416;SHT31;62850;42.428;25.618;2022-12-07T13:11:25;11.90;66.31
74416;SHT31;62850;42.428;25.618;2022-12-07T13:16:57;11.91;65.85
74416;SHT31;62850;42.428;25.618;2022-12-07T13:25:09;11.91;66.29
74416;SHT31;62850;42.428;25.618;2022-12-07T13:27:38;11.90;66.44
74416;SHT31;62850;42.428;25.618;2022-12-07T13:30:31;11.88;66.64
74416;SHT31;62850;42.428;25.618;2022-12-07T13:32:58;11.81;66.80
74416;SHT31;62850;42.428;25.618;2022-12-07T13:37:59;11.84;67.13
74416;SHT31;62850;42.428;25.618;2022-12-07T13:40:26;11.86;67.23
74416;SHT31;62850;42.428;25.618;2022-12-07T13:43:03;11.87;67.51
74416;SHT31;62850;42.428;25.618;2022-12-07T13:45:32;11.84;67.90
74416;SHT31;62850;42.428;25.618;2022-12-07T13:48:44;11.84;68.25
74416;SHT31;62850;42.428;25.618;2022-12-07T13:51:18;11.77;68.15
74416;SHT31;62850;42.428;25.618;2022-12-07T13:54:01;11.70;68.69
74416;SHT31;62850;42.428;25.618;2022-12-07T13:56:34;11.67;68.83
74416;SHT31;62850;42.428;25.618;2022-12-07T13:59:00;11.70;68.98
74416;SHT31;62850;42.428;25.618;2022-12-07T14:01:27;11.60;69.16
74416;SHT31;62850;42.428;25.618;2022-12-07T14:03:53;11.60;69.35
74416;SHT31;62850;42.428;25.618;2022-12-07T14:06:26;11.57;69.34
74416;SHT31;62850;42.428;25.618;2022-12-07T14:09:17;11.57;69.30
74416;SHT31;62850;42.428;25.618;2022-12-07T14:11:46;11.59;69.38
74416;SHT31;62850;42.428;25.618;2022-12-07T14:14:32;11.57;69.22
74416;SHT31;62850;42.428;25.618;2022-12-07T14:17:15;11.56;69.30
74416;SHT31;62850;42.428;25.618;2022-12-07T14:19:43;11.55;69.53
74416;SHT31;62850;42.428;25.618;2022-12-07T14:22:29;11.50;69.72
74416;SHT31;62850;42.428;25.618;2022-12-07T14:25:26;11.49;69.70
74416;SHT31;62850;42.428;25.618;2022-12-07T14:30:29;11.36;71.01
74416;SHT31;62850;42.428;25.618;2022-12-07T14:33:00;11.16;72.43
74416;SHT31;62850;42.428;25.618;2022-12-07T14:35:26;10.99;73.64
74416;SHT31;62850;42.428;25.618;2022-12-07T14:37:52;10.88;74.22
74416;SHT31;62850;42.428;25.618;2022-12-07T14:40:22;10.84;74.44
74416;SHT31;62850;42.428;25.618;2022-12-07T14:42:51;10.79;74.47
74416;SHT31;62850;42.428;25.618;2022-12-07T14:45:20;10.75;74.63
74416;SHT31;62850;42.428;25.618;2022-12-07T14:47:46;10.75;74.84
74416;SHT31;62850;42.428;25.618;2022-12-07T14:50:13;10.64;75.25
74416;SHT31;62850;42.428;25.618;2022-12-07T14:52:40;10.54;75.37
74416;SHT31;62850;42.428;25.618;2022-12-07T14:55:23;10.51;75.68
74416;SHT31;62850;42.428;25.618;2022-12-07T14:57:49;10.51;75.61
74416;SHT31;62850;42.428;25.618;2022-12-07T15:00:15;10.47;75.66
74416;SHT31;62850;42.428;25.618;2022-12-07T15:02:43;10.48;75.77
74416;SHT31;62850;42.428;25.618;2022-12-07T15:05:08;10.43;75.81
74416;SHT31;62850;42.428;25.618;2022-12-07T15:07:34;10.30;76.08
74416;SHT31;62850;42.428;25.618;2022-12-07T15:10:00;10.20;76.65
74416;SHT31;62850;42.428;25.618;2022-12-07T15:12:25;10.08;76.98
74416;SHT31;62850;42.428;25.618;2022-12-07T15:14:51;10.09;76.83
74416;SHT31;62850;42.428;25.618;2022-12-07T15:17:16;10.03;76.77
74416;SHT31;62850;42.428;25.618;2022-12-07T15:19:42;9.79;77.13
74416;SHT31;62850;42.428;25.618;2022-12-07T15:22:08;9.57;77.93
74416;SHT31;62850;42.428;25.618;2022-12-07T15:24:36;9.48;78.18
74416;SHT31;62850;42.428;25.618;2022-12-07T15:27:02;9.54;78.20
74416;SHT31;62850;42.428;25.618;2022-12-07T15:29:27;9.44;78.52
74416;SHT31;62850;42.428;25.618;2022-12-07T15:31:53;9.35;78.59
74416;SHT31;62850;42.428;25.618;2022-12-07T15:34:19;9.30;78.39
74416;SHT31;62850;42.428;25.618;2022-12-07T15:36:44;9.20;78.98
74416;SHT31;62850;42.428;25.618;2022-12-07T15:39:10;9.09;79.23
74416;SHT31;62850;42.428;25.618;2022-12-07T15:41:35;9.01;79.15
74416;SHT31;62850;42.428;25.618;2022-12-07T15:44:01;9.01;79.07
74416;SHT31;62850;42.428;25.618;2022-12-07T15:46:45;8.87;79.77
74416;SHT31;62850;42.428;25.618;2022-12-07T15:49:18;8.90;79.42
74416;SHT31;62850;42.428;25.618;2022-12-07T15:51:44;8.76;79.47
74416;SHT31;62850;42.428;25.618;2022-12-07T15:54:21;8.75;79.67
74416;SHT31;62850;42.428;25.618;2022-12-07T15:56:48;8.66;80.03
74416;SHT31;62850;42.428;25.618;2022-12-07T15:59:13;8.65;80.06
74416;SHT31;62850;42.428;25.618;2022-12-07T16:01:39;8.65;79.90
74416;SHT31;62850;42.428;25.618;2022-12-07T16:04:04;8.65;80.00
74416;SHT31;62850;42.428;25.618;2022-12-07T16:06:30;8.60;80.25
74416;SHT31;62850;42.428;25.618;2022-12-07T16:08:56;8.53;80.00
74416;SHT31;62850;42.428;25.618;2022-12-07T16:11:22;8.55;79.69
74416;SHT31;62850;42.428;25.618;2022-12-07T16:13:48;8.48;80.19
74416;SHT31;62850;42.428;25.618;2022-12-07T16:16:16;8.51;79.88
74416;SHT31;62850;42.428;25.618;2022-12-07T16:18:45;8.46;80.23
74416;SHT31;62850;42.428;25.618;2022-12-07T16:21:12;8.44;80.36
74416;SHT31;62850;42.428;25.618;2022-12-07T16:23:38;8.42;80.38
74416;SHT31;62850;42.428;25.618;2022-12-07T16:26:16;8.38;80.32
74416;SHT31;62850;42.428;25.618;2022-12-07T16:28:43;8.24;80.94
74416;SHT31;62850;42.428;25.618;2022-12-07T16:31:12;8.22;80.92
74416;SHT31;62850;42.428;25.618;2022-12-07T16:33:39;8.25;81.01
74416;SHT31;62850;42.428;25.618;2022-12-07T16:36:07;8.07;80.86
74416;SHT31;62850;42.428;25.618;2022-12-07T16:38:33;7.89;81.43
74416;SHT31;62850;42.428;25.618;2022-12-07T16:40:59;7.95;81.75
74416;SHT31;62850;42.428;25.618;2022-12-07T16:43:24;7.94;81.71
74416;SHT31;62850;42.428;25.618;2022-12-07T16:45:50;7.80;82.23
74416;SHT31;62850;42.428;25.618;2022-12-07T16:48:17;7.79;82.23
74416;SHT31;62850;42.428;25.618;2022-12-07T16:50:43;7.79;81.78
74416;SHT31;62850;42.428;25.618;2022-12-07T16:53:12;7.74;82.32
74416;SHT31;62850;42.428;25.618;2022-12-07T16:55:42;7.70;82.51
74416;SHT31;62850;42.428;25.618;2022-12-07T16:58:08;7.69;82.78
74416;SHT31;62850;42.428;25.618;2022-12-07T17:00:33;7.71;82.62
74416;SHT31;62850;42.428;25.618;2022-12-07T17:02:59;7.66;82.64
74416;SHT31;62850;42.428;25.618;2022-12-07T17:05:26;7.60;82.78
74416;SHT31;62850;42.428;25.618;2022-12-07T17:07:54;7.67;82.91
74416;SHT31;62850;42.428;25.618;2022-12-07T17:10:20;7.77;82.42
74416;SHT31;62850;42.428;25.618;2022-12-07T17:12:46;7.80;82.14
74416;SHT31;62850;42.428;25.618;2022-12-07T17:15:12;7.73;82.49
74416;SHT31;62850;42.428;25.618;2022-12-07T17:17:52;7.81;82.34
74416;SHT31;62850;42.428;25.618;2022-12-07T17:20:19;7.81;82.28
74416;SHT31;62850;42.428;25.618;2022-12-07T17:22:45;7.79;82.32
74416;SHT31;62850;42.428;25.618;2022-12-07T17:25:12;7.79;82.61
74416;SHT31;62850;42.428;25.618;2022-12-07T17:27:37;7.73;82.97
74416;SHT31;62850;42.428;25.618;2022-12-07T17:30:05;7.77;83.50
74416;SHT31;62850;42.428;25.618;2022-12-07T17:32:31;7.86;82.95
74416;SHT31;62850;42.428;25.618;2022-12-07T17:34:56;7.94;83.40
74416;SHT31;62850;42.428;25.618;2022-12-07T17:37:22;7.97;82.68
74416;SHT31;62850;42.428;25.618;2022-12-07T17:39:47;8.05;82.64
74416;SHT31;62850;42.428;25.618;2022-12-07T17:42:14;8.11;82.50
